Depesze METAR lotnisk w Polsce

METAR – format kodowanego raportu o pogodzie używany w meteorologii lotniczej i prognozie pogody. METAR jest akronimem od ang. Meteorological Aerodrome Report. Typowy METAR zawiera informację o temperaturze, ciśnieniu, temperaturze punktu rosy, sile i kierunku wiatru, opadzie, pokrywie chmur, wysokości podstawy chmur, widzialności, lecz może zawierać też inne informacje (np. stan dróg startowych).

Warszawa-Okęcie (EPWA)

METAR = EPWA 170930Z 31007KT 9999 BKN013 18/15 Q1022 BECMG BKN015

STACJA......... EPWA - Warszawa-Okęcie (WAW)
POMIAR......... Thu Aug 17, 11:30 CEST
WIATR.......... północno zachodni (NW) z prędkością 13 km/h
WIDZIALNOŚĆ.... powyżej 10 kilometrów
CHMURY......... zachmurzenie średnie (5/8-7/8)
TEMPERATURA.... 18°C
T.PUNKTU ROSY.. 15°C
WILGOTNOŚĆ..... 83%
CIŚNIENIE...... 1022 hPa
CIŚN.BEZWZGL... 1009 hPa
PROGNOZA....... nastąpi zmiana widzialności do BKN015 metrów

Sprawdź też: Prognoza pogody Warszawa

Warszawa-Modlin (EPMO)

METAR = EPMO 170930Z VRB03KT 9999 BKN017 19/14 Q1022 =

STACJA......... EPMO - Warszawa-Modlin (WMI)
POMIAR......... Thu Aug 17, 11:30 CEST
WIATR.......... zmienny z prędkością 6 km/h
WIDZIALNOŚĆ.... powyżej 10 kilometrów
CHMURY......... zachmurzenie średnie (5/8-7/8)
TEMPERATURA.... 19°C
T.PUNKTU ROSY.. 14°C
WILGOTNOŚĆ..... 73%
CIŚNIENIE...... 1022 hPa
CIŚN.BEZWZGL... 1010 hPa

Sprawdź też: Prognoza pogody Nowy Dwór Mazowiecki

Kraków-Balice (EPKK)

METAR = EPKK 170930Z VRB04KT 9999 FEW026 23/15 Q1021

STACJA......... EPKK - Kraków-Balice (KRK)
POMIAR......... Thu Aug 17, 11:30 CEST
WIATR.......... zmienny z prędkością 7 km/h
WIDZIALNOŚĆ.... powyżej 10 kilometrów
CHMURY......... zachmurzenie niewielkie (1/8-2/8)
TEMPERATURA.... 23°C
T.PUNKTU ROSY.. 15°C
WILGOTNOŚĆ..... 61%
CIŚNIENIE...... 1021 hPa
CIŚN.BEZWZGL... 993 hPa

Sprawdź też: Prognoza pogody Kraków

Łódź-Lublinek (EPLL)

METAR = EPLL 170930Z 27004KT 220V310 9999 BKN013 18/15 Q1022

STACJA......... EPLL - Łódź-Lublinek (LCJ)
POMIAR......... Thu Aug 17, 11:30 CEST
WIATR.......... zachodni (W) z prędkością 7 km/h
WIDZIALNOŚĆ.... powyżej 10 kilometrów
CHMURY......... zachmurzenie średnie (5/8-7/8)
TEMPERATURA.... 18°C
T.PUNKTU ROSY.. 15°C
WILGOTNOŚĆ..... 83%
CIŚNIENIE...... 1022 hPa
CIŚN.BEZWZGL... 1000 hPa

Sprawdź też: Prognoza pogody Łódź

Wrocław-Strachowice (EPWR)

METAR = EPWR 170930Z 14005KT 110V200 9999 SCT026 BKN043 22/16 Q1021

STACJA......... EPWR - Wrocław-Strachowice (WRO)
POMIAR......... Thu Aug 17, 11:30 CEST
WIATR.......... południowo wschodni (SE) z prędkością 9 km/h
WIDZIALNOŚĆ.... powyżej 10 kilometrów
CHMURY......... zachmurzenie średnie (5/8-7/8)
TEMPERATURA.... 22°C
T.PUNKTU ROSY.. 16°C
WILGOTNOŚĆ..... 69%
CIŚNIENIE...... 1021 hPa
CIŚN.BEZWZGL... 1007 hPa

Sprawdź też: Prognoza pogody Wrocław

Katowice-Pyrzowice (EPKT)

METAR = EPKT 170930Z 02003KT 290V060 9999 SCT009 BKN010 18/16 Q1022

STACJA......... EPKT - Katowice-Pyrzowice (KTW)
POMIAR......... Thu Aug 17, 11:30 CEST
WIATR.......... północno północno-wschodni (NNE) z prędkością 6 km/h
WIDZIALNOŚĆ.... powyżej 10 kilometrów
CHMURY......... zachmurzenie średnie (5/8-7/8)
TEMPERATURA.... 18°C
T.PUNKTU ROSY.. 16°C
WILGOTNOŚĆ..... 88%
CIŚNIENIE...... 1022 hPa
CIŚN.BEZWZGL... 986 hPa

Sprawdź też: Prognoza pogody Katowice

Gdańsk (EPGD)

METAR = EPGD 170930Z 32005KT 280V010 9999 BKN028 19/14 Q1021

STACJA......... EPGD - Gdańsk im. Lecha Wałęsy (GDN)
POMIAR......... Thu Aug 17, 11:30 CEST
WIATR.......... północno zachodni (NW) z prędkością 9 km/h
WIDZIALNOŚĆ.... powyżej 10 kilometrów
CHMURY......... zachmurzenie średnie (5/8-7/8)
TEMPERATURA.... 19°C
T.PUNKTU ROSY.. 14°C
WILGOTNOŚĆ..... 73%
CIŚNIENIE...... 1021 hPa
CIŚN.BEZWZGL... 1003 hPa

Sprawdź też: Prognoza pogody Gdańsk

Poznań-Ławica (EPPO)

METAR = EPPO 170930Z 11003KT 8000 OVC006 18/16 Q1022

STACJA......... EPPO - Poznań-Ławica (POZ)
POMIAR......... Thu Aug 17, 11:30 CEST
WIATR.......... wschodni południowo-wschodni (ESE) z prędkością 6 km/h
WIDZIALNOŚĆ.... 8000 metrów
CHMURY......... zachmurzenie całkowite (8/8)
TEMPERATURA.... 18°C
T.PUNKTU ROSY.. 16°C
WILGOTNOŚĆ..... 88%
CIŚNIENIE...... 1022 hPa
CIŚN.BEZWZGL... 1011 hPa

Sprawdź też: Prognoza pogody Poznań

Rzeszów-Jasionka (EPRZ)

METAR = EPRZ 170930Z 26004KT CAVOK 26/17 Q1021

STACJA......... EPRZ - Rzeszów-Jasionka (RZE)
POMIAR......... Thu Aug 17, 11:30 CEST
WIATR.......... zachodni (W) z prędkością 7 km/h
WIDZIALNOŚĆ.... powyżej 10 kilometrów
CHMURY......... bezchmurne niebo
TEMPERATURA.... 26°C
T.PUNKTU ROSY.. 17°C
WILGOTNOŚĆ..... 58%
CIŚNIENIE...... 1021 hPa
CIŚN.BEZWZGL... 997 hPa

Sprawdź też: Prognoza pogody Rzeszów

Szczecin-Goleniów (EPSC)

METAR = EPSC 170930Z 16010KT 130V190 9999 SCT014 BKN018 20/17 Q1020

STACJA......... EPSC - Szczecin-Goleniów (SZZ)
POMIAR......... Thu Aug 17, 11:30 CEST
WIATR.......... południowo południowo-wschodni (SSE) z prędkością 19 km/h
WIDZIALNOŚĆ.... powyżej 10 kilometrów
CHMURY......... zachmurzenie średnie (5/8-7/8)
TEMPERATURA.... 20°C
T.PUNKTU ROSY.. 17°C
WILGOTNOŚĆ..... 83%
CIŚNIENIE...... 1020 hPa
CIŚN.BEZWZGL... 1014 hPa

Sprawdź też: Prognoza pogody Szczecin

Lublin-Świdnik (EPLB)

METAR = EPLB 170930Z 34004KT 290V030 CAVOK 26/18 Q1020 =

STACJA......... EPLB - Lublin-Świdnik (LUZ)
POMIAR......... Thu Aug 17, 11:30 CEST
WIATR.......... północno północno-zachodni (NNW) z prędkością 7 km/h
WIDZIALNOŚĆ.... powyżej 10 kilometrów
CHMURY......... bezchmurne niebo
TEMPERATURA.... 26°C
T.PUNKTU ROSY.. 18°C
WILGOTNOŚĆ..... 61%
CIŚNIENIE...... 1020 hPa
CIŚN.BEZWZGL... 997 hPa

Sprawdź też: Prognoza pogody Lublin

Bydgoszcz-Szwederowo (EPBY)

METAR = EPBY 170930Z 21004KT 140V230 9999 BKN012 OVC015 18/14 Q1022 =

STACJA......... EPBY - Bydgoszcz-Szwederowo (BZG)
POMIAR......... Thu Aug 17, 11:30 CEST
WIATR.......... południowo południowo-zachodni  (SSW) z prędkością 7 km/h
WIDZIALNOŚĆ.... powyżej 10 kilometrów
CHMURY......... zachmurzenie całkowite (8/8)
TEMPERATURA.... 18°C
T.PUNKTU ROSY.. 14°C
WILGOTNOŚĆ..... 78%
CIŚNIENIE...... 1022 hPa
CIŚN.BEZWZGL... 1013 hPa

Sprawdź też: Prognoza pogody Bydgoszcz

Zielona Góra-Babimost (EPZG)

METAR = EPZG 170930Z 13005KT 100V160 9999 SCT007 OVC014 20/18 Q1021 =

STACJA......... EPZG - Zielona Góra-Babimost (IEG)
POMIAR......... Thu Aug 17, 11:30 CEST
WIATR.......... południowo wschodni (SE) z prędkością 9 km/h
WIDZIALNOŚĆ.... powyżej 10 kilometrów
CHMURY......... zachmurzenie całkowite (8/8)
TEMPERATURA.... 20°C
T.PUNKTU ROSY.. 18°C
WILGOTNOŚĆ..... 88%
CIŚNIENIE...... 1021 hPa
CIŚN.BEZWZGL... 1014 hPa

Sprawdź też: Prognoza pogody Zielona Góra

Szymany Olsztyn-Mazury (EPSY)

METAR = EPSY 170930Z VRB02KT 9999 SCT026 22/14 Q1022=

STACJA......... EPSY - Olsztyn-Mazury (SZY)
POMIAR......... Thu Aug 17, 11:30 CEST
WIATR.......... zmienny z prędkością 4 km/h
WIDZIALNOŚĆ.... powyżej 10 kilometrów
CHMURY......... zachmurzenie małe (3/8-4/8)
TEMPERATURA.... 22°C
T.PUNKTU ROSY.. 14°C
WILGOTNOŚĆ..... 61%
CIŚNIENIE...... 1022 hPa
CIŚN.BEZWZGL... 1006 hPa

Sprawdź też: Prognoza pogody Olsztyn